This is the latest recevied weather packets stored in our database for station/object KC0OOO-WX. If no packets are shown the sender has not sent any weather packets the latest 10 day(s).
| Time | Temp. | Humidity | Pressure | Rain* | Wind** | Luminosity | Snow |
|---|---|---|---|---|---|---|---|
| 1777824144 | 11.67° C | 40% | 1025.1 hPa | 0 mm | - | - | - |
| 1777823544 | 11.11° C | 40% | 1025.1 hPa | 0 mm | - | - | - |
| 1777822944 | 10.56° C | 42% | 1025.1 hPa | 0 mm | - | - | - |
| 1777822344 | 10° C | 44% | 1025.1 hPa | 0 mm | - | - | - |
| 1777821744 | 9.44° C | 46% | 1025.4 hPa | 0 mm | - | - | - |
| 1777821144 | 8.33° C | 47% | 1025.4 hPa | 0 mm | - | - | - |
| 1777820544 | 7.22° C | 49% | 1025.7 hPa | 0 mm | - | - | - |
| 1777819944 | 7.22° C | 49% | 1025.7 hPa | 0 mm | - | - | - |
| 1777819344 | 6.67° C | 50% | 1025.7 hPa | 0 mm | - | - | - |
| 1777818744 | 6.11° C | 52% | 1025.7 hPa | 0 mm | - | - | - |
| 1777818144 | 5° C | 58% | 1025.7 hPa | 0 mm | - | - | - |
| 1777817543 | 4.44° C | 60% | 1025.7 hPa | 0 mm | - | - | - |
| 1777816943 | 3.33° C | 64% | 1025.7 hPa | 0 mm | - | - | - |
| 1777816343 | 1.67° C | 69% | 1025.7 hPa | 0 mm | - | - | - |
| 1777815743 | 0.56° C | 71% | 1025.7 hPa | 0 mm | - | - | - |
| 1777815143 | 0° C | 72% | 1025.7 hPa | 0 mm | - | - | - |
| 1777814543 | -1.11° C | 74% | 1025.7 hPa | 0 mm | - | - | - |
| 1777813943 | -1.67° C | 76% | 1025.7 hPa | 0 mm | - | - | - |
| 1777813343 | -2.22° C | 76% | 1025.7 hPa | 0 mm | - | - | - |
| 1777812743 | -2.78° C | 74% | 1025.7 hPa | 0 mm | - | - | - |
| 1777812143 | -2.78° C | 74% | 1025.7 hPa | 0 mm | - | - | - |
| 1777811543 | -2.78° C | 72% | 1025.7 hPa | 0 mm | - | - | - |
| 1777810943 | -2.78° C | 71% | 1025.4 hPa | 0 mm | - | - | - |
| 1777810343 | -2.22° C | 70% | 1025.4 hPa | 0 mm | - | - | - |
| 1777809743 | -2.22° C | 70% | 1025.4 hPa | 0 mm | - | - | - |
* Rain latest hour (hover to see other rain measurements)
** Current wind speed in m/s (hover to see current wind gust speed)